Cecil Field, Florida
Current Conditions -  °F | °C
As of 6:50 AM on Monday 22 Dec 2014 (Local Time) from KVQQ Reporting Station
Moderate Rain Moderate Rain  
Wind Chill: 61°   Ceiling: 2500
Heat Index: 61°   Visibility: 2mi
Dew Point: 61°   Wind: 12mph
Humidity: 100%   Direction: 180°S
Pressure: 30.01"   Gusts: NA
Location:  30.2324°N, 81.8913°W
Report Text: KVQQ 221150Z 18010KT 2 SM RA SCT001 OVC025 16/16 A3001
Loading
Personal Weather Stations






























Interactive Weather Map New forecast layout! Learn more

10-Day Weather Forecast

Advertisements
Track Severe Weather on mobile